INFORMACIóN METAR y TAF
METAR FOR SCRM
ADDS - METARS form results

(1253 UTC 12 August 2020)
Data provider http://aviationweather.gov/metar/data/
 
METAR text: SCRM 121200Z 12046G56KT 0200 BLSN OVC005 M13/M14 Q0996 NOSIG
Conditions at: SCRM (TENIENTE R MARSH, CL) observed 1200 UTC 12 August 2020
Temperature: -13.0°C ( 9°F)
Dewpoint: -14.0°C ( 7°F) [RH = 92%]
Pressure (altimeter): 29.41 inches Hg (996.0 mb)
Winds: from the ESE (120 degrees) at 53 MPH (46 knots; 23.7 m/s)
gusting to 64 MPH (56 knots; 28.8 m/s)
Visibility: 0.12 miles (0.19 km)
Ceiling: 500 feet AGL
Clouds: overcast cloud deck at 500 feet AGL
Weather: BLSN  (blowing snow)

MAPA DE AEROPUERTO

INFORMACIóN DE PISTA
Pista 11 Longitud 4238 ft Ancho 125 ft
Elevación 142 ft Umbral desplazado 0 ft Rumbo de pista 122
Pista 29 Longitud 4238 ft Ancho 125 ft
Elevación 127 ft Umbral desplazado 0 ft Rumbo de pista 302

FRECUANCIAS DEL AEROPUERTO
Tipo APP Nombre MARSH APP Frecuencia 118.1 MHZ
Tipo TWR Nombre TWR Frecuencia 118.1 MHZ

RADIO AYUDAS DEL AEROPUERTO
Tipo VOR-DME Nombre Isla Rey Jorge Frecuencia 113300 KHZ
Tipo NDB Nombre Isla Rey Jorge Frecuencia 360 KHZ



Si desea hacer un donativo para mantenimiento de el dominio y el alojamiento web pulse en elboton donar y siga los pasos. Desde ya muchas gracias.

Powered by Virtual Airlines Manager
Ver 2.5.2